Time;durP1;ratioP1;P1;durP2;ratioP2;P2;SDS_P1;SDS_P2;PMS_P1;PMS_P2;Temp;Humidity;BMP_temperature;BMP_pressure;BME280_temperature;BME280_humidity;BME280_pressure;Samples;Min_cycle;Max_cycle;Signal;HPM_P1;HPM_P2
2022/10/09 00:00:48;;;;;;;10.57;6.38;;;;;;;11.91;69.76;100407.97;5111313;28;20027;-33
2022/10/09 00:03:16;;;;;;;7.95;5.72;;;;;;;11.80;69.88;100389.94;5092674;28;20063;-27
2022/10/09 00:05:43;;;;;;;10.00;6.35;;;;;;;11.84;69.96;100407.97;5110984;28;20106;-28
2022/10/09 00:08:08;;;;;;;9.38;5.97;;;;;;;11.82;70.20;100403.88;5111128;28;20474;-28
2022/10/09 00:10:38;;;;;;;11.57;6.07;;;;;;;11.92;69.76;100401.56;5110769;28;20019;-28
2022/10/09 00:13:04;;;;;;;10.70;6.50;;;;;;;11.76;69.49;100380.72;5110686;28;20031;-29
2022/10/09 00:15:29;;;;;;;10.15;6.57;;;;;;;11.75;70.05;100397.78;5092314;28;20380;-32
2022/10/09 00:17:55;;;;;;;10.07;7.00;;;;;;;11.37;71.37;100393.34;5092350;28;20020;-27
2022/10/09 00:20:20;;;;;;;16.50;6.82;;;;;;;11.18;71.42;100403.94;5092295;28;20095;-28
2022/10/09 00:22:45;;;;;;;12.23;6.18;;;;;;;11.33;71.60;100395.63;5110775;28;20031;-27
2022/10/09 00:25:11;;;;;;;10.35;5.93;;;;;;;11.27;71.34;100386.63;5110469;28;20037;-28
2022/10/09 00:27:36;;;;;;;8.68;5.82;;;;;;;11.26;71.57;100393.00;5091780;28;20035;-31
2022/10/09 00:30:03;;;;;;;10.63;5.85;;;;;;;11.40;71.75;100393.75;5110776;28;20019;-28
2022/10/09 00:32:28;;;;;;;10.27;6.53;;;;;;;11.30;71.62;100368.53;5110586;28;20026;-28
2022/10/09 00:34:54;;;;;;;10.07;5.80;;;;;;;11.16;71.82;100370.50;5089936;28;20032;-29
2022/10/09 00:37:19;;;;;;;21.52;6.80;;;;;;;11.26;71.91;100376.19;5089972;28;20063;-29
2022/10/09 00:39:45;;;;;;;10.73;6.22;;;;;;;11.24;72.58;100392.41;5089803;28;20024;-28
2022/10/09 00:42:11;;;;;;;9.43;6.30;;;;;;;11.24;72.09;100381.72;5089969;28;20118;-27
2022/10/09 00:44:57;;;;;;;9.18;6.20;;;;;;;11.43;71.63;100387.16;5090122;28;20028;-29
2022/10/09 00:47:27;;;;;;;10.05;6.60;;;;;;;11.54;71.68;100381.09;5071591;28;20035;-31
2022/10/09 00:50:01;;;;;;;8.93;5.95;;;;;;;11.67;70.99;100401.56;5089719;28;20035;-30
2022/10/09 00:52:27;;;;;;;8.48;5.68;;;;;;;11.57;70.79;100382.53;5089427;28;20047;-31
2022/10/09 00:54:54;;;;;;;9.70;6.55;;;;;;;11.52;71.01;100377.00;5089844;28;20089;-30
2022/10/09 00:57:20;;;;;;;9.90;6.65;;;;;;;11.53;70.70;100394.69;5089207;28;20071;-28
2022/10/09 00:59:46;;;;;;;11.55;7.70;;;;;;;11.42;71.79;100382.81;5089151;28;20059;-27
2022/10/09 01:02:11;;;;;;;10.57;7.43;;;;;;;11.44;71.42;100402.13;5089514;28;20059;-27
2022/10/09 01:04:36;;;;;;;12.55;6.60;;;;;;;11.48;70.78;100387.28;5071186;28;20773;-29
2022/10/09 01:07:02;;;;;;;11.00;6.38;;;;;;;11.44;71.14;100394.09;5089270;28;20032;-28
2022/10/09 01:09:30;;;;;;;10.63;6.95;;;;;;;11.53;70.68;100400.03;5089502;28;20020;-28
2022/10/09 01:12:05;;;;;;;;;;;;;;;11.48;71.03;100405.19;5089717;28;20070;-27
2022/10/09 01:14:43;;;;;;;10.43;6.50;;;;;;;11.24;72.49;100387.06;5089200;28;20423;-26
2022/10/09 01:17:20;;;;;;;11.57;6.55;;;;;;;11.10;73.34;100385.50;5089248;28;20028;-30
2022/10/09 01:20:08;;;;;;;9.93;6.30;;;;;;;11.36;71.83;100397.03;5087266;28;20040;-28
2022/10/09 01:22:44;;;;;;;11.57;6.88;;;;;;;11.26;71.72;100395.69;5089122;28;20173;-30
2022/10/09 01:25:18;;;;;;;9.00;6.28;;;;;;;10.95;72.89;100372.47;5089172;28;20024;-28
2022/10/09 01:27:44;;;;;;;10.10;6.85;;;;;;;10.93;73.43;100371.00;5070307;28;20568;-28
2022/10/09 01:30:11;;;;;;;9.68;6.90;;;;;;;11.19;73.13;100388.72;5088823;28;20032;-26
2022/10/09 01:32:41;;;;;;;10.70;7.45;;;;;;;11.18;71.95;100387.91;5088670;28;20054;-32
2022/10/09 01:35:09;;;;;;;11.75;7.00;;;;;;;11.10;72.14;100377.50;5087459;28;20431;-29
2022/10/09 01:37:37;;;;;;;11.25;7.38;;;;;;;11.22;71.99;100399.00;5069959;28;20522;-27
2022/10/09 01:40:03;;;;;;;12.32;7.28;;;;;;;11.15;72.11;100391.00;5087436;28;20032;-28
2022/10/09 01:42:30;;;;;;;12.30;7.32;;;;;;;11.22;71.72;100394.47;5070203;28;20042;-28
2022/10/09 01:44:55;;;;;;;9.95;7.35;;;;;;;11.33;71.39;100400.16;5087526;28;20024;-30
2022/10/09 01:47:21;;;;;;;13.80;7.28;;;;;;;11.16;71.48;100390.00;5088932;28;20492;-27
2022/10/09 01:50:14;;;;;;;11.73;7.20;;;;;;;11.17;72.03;100393.47;5088229;28;20038;-30
2022/10/09 01:52:51;;;;;;;11.82;7.60;;;;;;;11.29;71.37;100398.94;5088607;28;20032;-28
2022/10/09 01:55:29;;;;;;;10.57;7.10;;;;;;;11.25;71.55;100398.56;5088909;28;20052;-28
2022/10/09 01:58:04;;;;;;;15.57;7.55;;;;;;;11.06;72.03;100369.09;5088739;28;20047;-31
2022/10/09 02:00:34;;;;;;;13.10;7.97;;;;;;;11.02;72.54;100380.44;5070218;28;20028;-28
2022/10/09 02:03:03;;;;;;;11.35;7.43;;;;;;;11.09;72.87;100404.41;5088537;28;20530;-27
2022/10/09 02:05:31;;;;;;;14.45;7.57;;;;;;;10.99;73.44;100397.69;5086657;28;20103;-31
2022/10/09 02:07:57;;;;;;;9.70;7.32;;;;;;;10.91;74.31;100408.59;5087032;28;20046;-32
2022/10/09 02:10:23;;;;;;;10.98;7.72;;;;;;;10.90;74.12;100406.16;5087519;28;20020;-27
2022/10/09 02:12:53;;;;;;;11.70;7.25;;;;;;;10.71;74.11;100408.69;5087851;28;20032;-28
2022/10/09 02:15:20;;;;;;;11.43;8.45;;;;;;;10.65;74.08;100402.34;5088217;28;20056;-28
2022/10/09 02:17:48;;;;;;;10.57;7.82;;;;;;;10.68;74.47;100411.75;5069383;28;20036;-28
2022/10/09 02:20:31;;;;;;;12.57;8.30;;;;;;;10.44;74.99;100398.09;5086665;28;20141;-28
2022/10/09 02:22:59;;;;;;;13.85;8.32;;;;;;;10.30;76.15;100391.19;5087925;28;20043;-31
2022/10/09 02:25:24;;;;;;;11.90;7.78;;;;;;;10.37;76.25;100412.47;5088399;28;20032;-28
2022/10/09 02:27:50;;;;;;;10.40;8.50;;;;;;;10.56;75.46;100418.78;5086207;28;20146;-32
2022/10/09 02:30:16;;;;;;;13.00;7.85;;;;;;;10.48;75.54;100419.00;5087877;28;20095;-29
2022/10/09 02:32:42;;;;;;;13.23;8.15;;;;;;;10.27;76.27;100415.53;5087827;28;20036;-29
2022/10/09 02:35:08;;;;;;;11.07;8.02;;;;;;;10.35;76.66;100419.88;5088193;28;20395;-27
2022/10/09 02:37:33;;;;;;;11.85;8.63;;;;;;;10.45;76.33;100414.91;5085666;28;20530;-27
2022/10/09 02:39:58;;;;;;;11.88;8.27;;;;;;;10.65;75.18;100420.19;5087595;28;20031;-31
2022/10/09 02:42:24;;;;;;;12.57;8.40;;;;;;;10.40;75.82;100412.88;5087699;28;20039;-28
2022/10/09 02:44:50;;;;;;;13.00;7.93;;;;;;;10.36;76.36;100426.81;5087564;28;20034;-30
2022/10/09 02:47:16;;;;;;;42.33;18.77;;;;;;;10.02;74.84;100397.53;5087510;28;20035;-27
2022/10/09 02:49:41;;;;;;;29.75;13.98;;;;;;;9.73;74.39;100412.13;5069074;28;20406;-29
2022/10/09 02:52:07;;;;;;;27.20;14.00;;;;;;;9.60;75.27;100422.75;5069093;28;20032;-27
2022/10/09 02:54:33;;;;;;;49.80;20.73;;;;;;;9.69;74.36;100426.06;5087317;28;20028;-31
2022/10/09 02:56:58;;;;;;;44.05;19.90;;;;;;;9.81;74.42;100419.09;5087248;28;20035;-28
2022/10/09 02:59:23;;;;;;;24.17;11.98;;;;;;;9.67;75.28;100402.28;5087239;28;20035;-27
2022/10/09 03:01:49;;;;;;;23.00;12.85;;;;;;;9.63;75.84;100423.16;5086952;28;20515;-27
2022/10/09 03:04:14;;;;;;;13.07;9.00;;;;;;;9.60;75.28;100407.59;5069028;28;20036;-27
2022/10/09 03:06:40;;;;;;;19.38;10.40;;;;;;;9.59;75.92;100424.59;5087265;28;20044;-27
2022/10/09 03:09:05;;;;;;;17.60;10.27;;;;;;;9.75;75.96;100417.25;5052291;28;20130;-26
2022/10/09 03:11:30;;;;;;;17.77;9.98;;;;;;;9.80;76.52;100425.41;5086975;28;20477;-31
2022/10/09 03:13:56;;;;;;;42.28;19.27;;;;;;;9.71;76.46;100408.84;5087231;28;20031;-33
2022/10/09 03:16:23;;;;;;;22.42;12.85;;;;;;;9.77;76.41;100402.69;5086956;28;20020;-28
2022/10/09 03:18:49;;;;;;;19.92;10.88;;;;;;;9.76;76.47;100405.56;5087197;28;20135;-26
2022/10/09 03:21:17;;;;;;;18.40;9.88;;;;;;;9.54;77.63;100418.22;5086918;28;20024;-29
2022/10/09 03:23:43;;;;;;;13.15;8.93;;;;;;;9.62;78.13;100439.34;5086635;28;20115;-28
2022/10/09 03:26:12;;;;;;;14.13;8.25;;;;;;;9.68;77.38;100419.06;5086912;28;20103;-29
2022/10/09 03:28:40;;;;;;;11.15;8.43;;;;;;;9.76;76.83;100416.19;5086703;28;20028;-28
2022/10/09 03:31:06;;;;;;;13.02;9.57;;;;;;;9.72;77.26;100404.31;5085549;28;20460;-27
2022/10/09 03:33:33;;;;;;;13.25;8.60;;;;;;;9.93;76.33;100430.75;5086664;28;20034;-29
2022/10/09 03:35:58;;;;;;;14.63;8.05;;;;;;;9.56;77.67;100411.69;5086915;28;20032;-29
2022/10/09 03:38:24;;;;;;;13.77;9.02;;;;;;;9.61;77.62;100422.53;5086870;28;20574;-27
2022/10/09 03:40:49;;;;;;;14.45;9.63;;;;;;;10.00;76.15;100431.56;5068430;28;20476;-28
2022/10/09 03:43:15;;;;;;;12.32;8.95;;;;;;;9.94;76.43;100413.75;5086714;28;20498;-28
2022/10/09 03:45:41;;;;;;;14.07;9.23;;;;;;;10.30;74.82;100441.81;5086609;28;20028;-27
2022/10/09 03:48:11;;;;;;;13.82;9.02;;;;;;;10.11;74.88;100429.31;5087095;28;20051;-29
2022/10/09 03:50:40;;;;;;;14.93;9.70;;;;;;;10.05;75.17;100446.94;5086787;28;20028;-28
2022/10/09 03:53:07;;;;;;;11.88;8.60;;;;;;;10.00;74.81;100431.56;5086948;28;20468;-28
2022/10/09 03:55:33;;;;;;;16.20;9.32;;;;;;;10.18;73.96;100438.13;5086283;28;20020;-28
2022/10/09 03:57:58;;;;;;;14.45;8.93;;;;;;;9.91;75.27;100443.47;5086626;28;20495;-28
2022/10/09 04:00:24;;;;;;;12.52;8.75;;;;;;;9.93;75.32;100436.09;5086828;28;20047;-29
2022/10/09 04:02:50;;;;;;;13.23;8.88;;;;;;;9.95;74.52;100412.72;5086453;28;20419;-28
2022/10/09 04:05:15;;;;;;;14.38;9.35;;;;;;;9.78;75.35;100425.63;5086567;28;20028;-28
2022/10/09 04:07:41;;;;;;;13.75;8.50;;;;;;;10.03;74.76;100443.66;5086234;28;20032;-29
2022/10/09 04:10:07;;;;;;;14.50;8.98;;;;;;;9.91;74.95;100442.63;5086585;28;20047;-27
2022/10/09 04:12:32;;;;;;;16.83;8.75;;;;;;;9.79;75.11;100427.28;5086502;28;20047;-27
2022/10/09 04:14:58;;;;;;;16.63;9.07;;;;;;;9.74;74.78;100426.25;5068535;28;20032;-27
2022/10/09 04:17:23;;;;;;;13.60;8.82;;;;;;;9.85;75.69;100449.63;5086835;28;20020;-27
2022/10/09 04:19:49;;;;;;;14.15;8.65;;;;;;;9.60;76.66;100447.56;5068008;28;20032;-28
2022/10/09 04:22:14;;;;;;;15.73;8.90;;;;;;;9.63;76.30;100444.47;5086551;28;20039;-27
2022/10/09 04:24:39;;;;;;;15.07;8.60;;;;;;;9.51;77.20;100446.09;5086656;28;20455;-28
2022/10/09 04:27:05;;;;;;;14.73;9.20;;;;;;;9.61;76.56;100433.19;5086081;28;20077;-28
2022/10/09 04:29:30;;;;;;;12.80;8.45;;;;;;;9.64;76.22;100445.28;5086404;28;20028;-31
2022/10/09 04:31:56;;;;;;;13.75;7.95;;;;;;;9.64;75.91;100453.25;5086790;28;20036;-29
2022/10/09 04:34:21;;;;;;;11.57;8.30;;;;;;;9.54;76.58;100445.69;5089432;28;20059;-27
2022/10/09 04:36:46;;;;;;;13.70;8.98;;;;;;;9.55;77.19;100452.66;5090035;28;20108;-28
2022/10/09 04:39:12;;;;;;;15.32;8.20;;;;;;;9.59;76.90;100453.88;5090207;28;20578;-29
2022/10/09 04:41:38;;;;;;;13.63;8.18;;;;;;;9.60;76.56;100434.25;5089712;28;20036;-28
2022/10/09 04:44:03;;;;;;;13.05;8.68;;;;;;;9.77;76.59;100461.28;5090163;28;20585;-28
2022/10/09 04:46:29;;;;;;;12.73;8.27;;;;;;;9.52;77.74;100452.22;5088377;28;20020;-28
2022/10/09 04:48:54;;;;;;;12.77;8.63;;;;;;;9.28;78.22;100445.66;5089861;28;20407;-26
2022/10/09 04:51:20;;;;;;;12.25;8.32;;;;;;;9.53;78.32;100470.66;5089773;28;20062;-28
2022/10/09 04:53:45;;;;;;;13.15;8.73;;;;;;;9.63;76.05;100467.63;5071289;28;20024;-28
2022/10/09 04:56:14;;;;;;;15.00;8.20;;;;;;;9.14;77.58;100472.19;5089578;28;20034;-28
2022/10/09 04:58:40;;;;;;;12.52;8.50;;;;;;;9.35;76.65;100484.53;5089747;28;20574;-33
2022/10/09 05:01:08;;;;;;;15.90;9.68;;;;;;;9.39;75.61;100484.97;5089561;28;20032;-32
2022/10/09 05:03:35;;;;;;;15.48;9.15;;;;;;;9.32;76.01;100486.81;5089505;28;20028;-27
2022/10/09 05:06:02;;;;;;;12.50;8.60;;;;;;;9.31;76.39;100483.31;5089586;28;20397;-27
2022/10/09 05:08:30;;;;;;;12.55;9.00;;;;;;;9.35;76.70;100491.72;5089463;28;20034;-29
2022/10/09 05:11:00;;;;;;;12.75;8.50;;;;;;;9.76;75.65;100470.28;5089331;28;20120;-27
2022/10/09 05:13:30;;;;;;;12.73;8.43;;;;;;;10.18;75.68;100486.91;5089877;28;20062;-28
2022/10/09 05:15:56;;;;;;;15.65;8.30;;;;;;;10.48;74.58;100488.34;5089397;28;20491;-30
2022/10/09 05:18:21;;;;;;;11.55;8.18;;;;;;;10.56;74.30;100490.78;5089271;28;20073;-28
2022/10/09 05:20:47;;;;;;;14.27;8.73;;;;;;;10.75;74.38;100489.94;5089269;28;20028;-29
2022/10/09 05:23:12;;;;;;;13.55;8.73;;;;;;;10.80;73.85;100487.44;5070801;28;20028;-29
2022/10/09 05:25:37;;;;;;;16.65;8.95;;;;;;;10.76;73.45;100490.75;5088952;28;20385;-27
2022/10/09 05:28:05;;;;;;;17.65;9.68;;;;;;;11.09;72.64;100489.81;5070887;28;20035;-28
2022/10/09 05:30:30;;;;;;;14.07;9.45;;;;;;;11.22;72.98;100501.25;5088940;28;20039;-28
2022/10/09 05:32:55;;;;;;;12.70;9.32;;;;;;;11.35;72.39;100479.00;5070734;28;20036;-27
2022/10/09 05:35:21;;;;;;;30.77;17.55;;;;;;;11.47;72.83;100497.84;5088739;28;20035;-30
2022/10/09 05:37:46;;;;;;;34.67;20.02;;;;;;;11.74;72.14;100498.50;5087191;28;20048;-27
2022/10/09 05:40:12;;;;;;;19.58;12.55;;;;;;;11.64;72.46;100498.97;5088909;28;20040;-27
2022/10/09 05:42:37;;;;;;;24.48;16.45;;;;;;;11.77;72.13;100499.91;5088930;28;20126;-27
2022/10/09 05:45:03;;;;;;;18.55;12.68;;;;;;;11.97;70.68;100505.16;5088890;28;20614;-28
2022/10/09 05:47:29;;;;;;;14.73;10.40;;;;;;;11.80;72.21;100486.94;5088996;28;20032;-26
2022/10/09 05:49:54;;;;;;;20.67;10.52;;;;;;;11.83;71.45;100509.75;5088573;28;20134;-30
2022/10/09 05:52:20;;;;;;;13.70;9.25;;;;;;;11.77;71.61;100505.25;5088520;28;20098;-28
2022/10/09 05:54:46;;;;;;;12.85;9.23;;;;;;;11.88;70.82;100515.25;5087026;28;20032;-30
2022/10/09 05:57:11;;;;;;;13.52;8.80;;;;;;;11.66;71.74;100496.88;5088533;28;20492;-27
2022/10/09 05:59:37;;;;;;;12.50;8.98;;;;;;;11.90;72.22;100521.25;5088303;28;20642;-29
2022/10/09 06:02:02;;;;;;;16.75;9.63;;;;;;;11.99;72.79;100519.13;5088370;28;20050;-28
2022/10/09 06:04:28;;;;;;;12.80;9.38;;;;;;;12.05;72.28;100511.06;5088462;28;20032;-31
2022/10/09 06:06:53;;;;;;;14.50;9.25;;;;;;;12.34;70.85;100519.47;5069978;28;20027;-27
2022/10/09 06:09:21;;;;;;;14.00;9.48;;;;;;;12.59;71.36;100529.31;5088254;28;20414;-27
2022/10/09 06:11:47;;;;;;;;;;;;;;;12.75;70.72;100527.91;5088495;28;20046;-29
2022/10/09 06:14:13;;;;;;;12.98;8.68;;;;;;;12.69;70.51;100510.91;5069233;28;19921;-30
2022/10/09 06:16:40;;;;;;;14.32;9.15;;;;;;;12.98;70.53;100525.41;5088107;28;20032;-28
2022/10/09 06:19:09;;;;;;;11.02;8.27;;;;;;;13.04;70.31;100521.03;5069702;28;20036;-28
2022/10/09 06:21:34;;;;;;;;;;;;;;;13.29;70.27;100528.13;5088016;28;20024;-27
2022/10/09 06:24:02;;;;;;;14.07;7.90;;;;;;;13.25;68.85;100509.03;5069665;28;19916;-27
2022/10/09 06:26:28;;;;;;;15.88;8.30;;;;;;;13.51;68.78;100531.19;5088000;28;20043;-28
2022/10/09 06:28:54;;;;;;;10.88;8.00;;;;;;;13.43;69.41;100527.78;5069560;28;20031;-29
2022/10/09 06:31:22;;;;;;;11.85;8.25;;;;;;;13.49;69.32;100542.13;5069774;28;20469;-26
2022/10/09 06:33:49;;;;;;;10.98;7.82;;;;;;;13.37;69.80;100535.91;5087522;28;20032;-28
2022/10/09 06:36:23;;;;;;;13.13;8.73;;;;;;;13.68;69.49;100534.84;5087541;28;20051;-29
2022/10/09 06:38:48;;;;;;;12.48;7.68;;;;;;;13.77;68.05;100525.47;5086452;28;20074;-27
2022/10/09 06:41:18;;;;;;;9.73;7.07;;;;;;;13.85;68.33;100540.38;5087707;28;20529;-28
2022/10/09 06:43:53;;;;;;;13.48;8.38;;;;;;;13.99;68.37;100539.13;5069434;28;20034;-31
2022/10/09 06:46:20;;;;;;;11.88;7.57;;;;;;;14.04;68.13;100539.28;5069421;28;20427;-27
2022/10/09 06:48:45;;;;;;;11.63;8.35;;;;;;;14.15;67.07;100523.44;5087560;28;20073;-29
2022/10/09 06:51:13;;;;;;;13.23;7.75;;;;;;;14.24;66.96;100543.50;5087824;28;20104;-32
2022/10/09 06:53:43;;;;;;;;;;;;;;;14.38;66.83;100550.28;5087964;28;20027;-27
2022/10/09 06:56:09;;;;;;;12.38;6.90;;;;;;;14.67;67.10;100550.44;5087000;28;19916;-30
2022/10/09 06:58:36;;;;;;;10.30;7.03;;;;;;;14.61;65.34;100535.28;5087482;28;20522;-29
2022/10/09 07:01:05;;;;;;;16.33;7.90;;;;;;;14.77;65.37;100553.38;5087220;28;20016;-28
2022/10/09 07:03:31;;;;;;;13.32;8.25;;;;;;;14.67;65.81;100537.03;5087275;28;20785;-29
2022/10/09 07:06:14;;;;;;;11.82;8.00;;;;;;;15.15;65.15;100549.31;5087358;28;20181;-31
2022/10/09 07:08:42;;;;;;;12.63;7.53;;;;;;;15.40;63.62;100529.38;5087503;28;20106;-28
2022/10/09 07:11:21;;;;;;;12.43;7.73;;;;;;;15.26;63.71;100537.75;5087151;28;20135;-28
2022/10/09 07:13:52;;;;;;;14.23;7.18;;;;;;;15.67;62.63;100546.59;5087047;28;20471;-28
2022/10/09 07:16:26;;;;;;;10.02;6.05;;;;;;;15.96;60.30;100553.84;5087389;28;20089;-28
2022/10/09 07:18:52;;;;;;;11.20;6.63;;;;;;;16.16;61.42;100542.59;5087328;28;20051;-31
2022/10/09 07:21:18;;;;;;;11.75;7.05;;;;;;;16.44;60.60;100566.72;5086910;28;20028;-29
2022/10/09 07:23:44;;;;;;;11.13;6.95;;;;;;;16.41;59.16;100563.75;5086954;28;20105;-29
2022/10/09 07:26:20;;;;;;;11.00;6.10;;;;;;;16.54;59.65;100573.34;5086978;28;20032;-28
2022/10/09 07:28:46;;;;;;;16.63;6.82;;;;;;;16.61;57.91;100553.28;5087157;28;20031;-29
2022/10/09 07:31:12;;;;;;;12.05;6.25;;;;;;;16.60;57.96;100542.75;5087150;28;20032;-30
2022/10/09 07:33:38;;;;;;;11.40;6.40;;;;;;;16.67;57.17;100554.97;5068670;28;20380;-27
2022/10/09 07:36:05;;;;;;;11.70;6.47;;;;;;;17.04;57.87;100589.47;5086769;28;20529;-28
2022/10/09 07:38:31;;;;;;;10.25;6.45;;;;;;;17.08;57.61;100573.63;5086539;28;20044;-28
2022/10/09 07:41:01;;;;;;;12.45;6.05;;;;;;;17.24;57.26;100575.44;5086611;28;20051;-27
2022/10/09 07:43:27;;;;;;;8.77;5.35;;;;;;;17.61;55.71;100560.47;5086768;28;20031;-28
2022/10/09 07:45:52;;;;;;;8.73;5.30;;;;;;;17.42;54.93;100535.75;5086613;28;20028;-31
2022/10/09 07:48:18;;;;;;;9.32;5.50;;;;;;;17.42;55.19;100563.50;5086695;28;20035;-28
2022/10/09 07:50:43;;;;;;;8.27;5.15;;;;;;;17.61;53.88;100563.16;5086853;28;20451;-28
2022/10/09 07:53:09;;;;;;;8.70;5.18;;;;;;;17.20;54.93;100538.44;5068355;28;20024;-31
2022/10/09 07:55:35;;;;;;;7.63;5.25;;;;;;;17.73;54.64;100563.03;5086384;28;20122;-29
2022/10/09 07:58:00;;;;;;;8.02;4.57;;;;;;;18.00;54.05;100555.78;5068452;28;20020;-28
2022/10/09 08:00:26;;;;;;;7.40;4.90;;;;;;;18.01;52.69;100540.41;5068456;28;20058;-27
2022/10/09 08:02:51;;;;;;;7.55;4.70;;;;;;;18.16;53.12;100574.81;5086735;28;20026;-27
2022/10/09 08:05:17;;;;;;;7.18;4.97;;;;;;;18.45;51.79;100573.44;5086557;28;20466;-29
2022/10/09 08:07:42;;;;;;;6.32;4.18;;;;;;;18.75;51.60;100566.59;5086809;28;20101;-28
2022/10/09 08:10:08;;;;;;;7.95;5.13;;;;;;;18.98;50.40;100572.69;5090397;28;20558;-30
2022/10/09 08:12:33;;;;;;;7.32;4.38;;;;;;;18.76;49.54;100568.22;5090700;28;20032;-28
2022/10/09 08:14:59;;;;;;;7.10;4.38;;;;;;;18.87;50.21;100548.31;5090485;28;20035;-30
2022/10/09 08:17:24;;;;;;;7.68;4.20;;;;;;;19.20;48.82;100549.00;5090983;28;20032;-26
2022/10/09 08:19:49;;;;;;;7.55;4.53;;;;;;;19.30;49.89;100547.44;5071777;28;20028;-28
2022/10/09 08:22:15;;;;;;;8.50;4.65;;;;;;;19.78;49.69;100567.09;5090874;28;20547;-28
2022/10/09 08:24:40;;;;;;;7.97;4.60;;;;;;;19.61;49.90;100551.84;5090247;28;20047;-29
2022/10/09 08:27:06;;;;;;;6.65;4.45;;;;;;;19.65;47.82;100568.34;5072126;28;20031;-29
2022/10/09 08:29:32;;;;;;;7.97;4.90;;;;;;;19.51;48.46;100551.81;5090376;28;20517;-27
2022/10/09 08:31:57;;;;;;;7.40;5.38;;;;;;;19.60;48.43;100554.84;5090308;28;20032;-28
2022/10/09 08:34:23;;;;;;;7.88;4.78;;;;;;;19.39;49.17;100562.06;5088852;28;20158;-29
2022/10/09 08:36:49;;;;;;;9.25;4.90;;;;;;;19.35;48.83;100545.56;5071609;28;20098;-32
2022/10/09 08:39:14;;;;;;;8.18;4.75;;;;;;;19.76;48.18;100563.84;5090102;28;20400;-29
2022/10/09 08:41:44;;;;;;;7.25;4.35;;;;;;;20.09;49.30;100559.00;5071463;28;20563;-31
2022/10/09 08:44:10;;;;;;;7.65;4.85;;;;;;;20.56;47.86;100569.53;5090327;28;20062;-29
2022/10/09 08:47:00;;;;;;;9.23;5.28;;;;;;;20.87;46.40;100564.88;5088686;28;20073;-29
2022/10/09 08:49:44;;;;;;;6.68;5.20;;;;;;;20.67;45.31;100556.78;5089768;28;20027;-29
2022/10/09 08:52:16;;;;;;;7.45;4.57;;;;;;;20.50;45.43;100542.72;5089934;28;20032;-28
2022/10/09 08:54:41;;;;;;;8.40;4.80;;;;;;;20.51;46.17;100536.19;5071563;28;20031;-28
2022/10/09 08:57:14;;;;;;;7.47;5.00;;;;;;;20.58;45.67;100542.16;5071353;28;20027;-28
2022/10/09 08:59:40;;;;;;;8.38;4.80;;;;;;;20.71;45.66;100525.34;5089445;28;20565;-31
2022/10/09 09:02:34;;;;;;;9.18;4.68;;;;;;;20.75;45.43;100531.03;5089337;28;20114;-31
2022/10/09 09:06:07;;;;;;;9.85;4.95;;;;;;;20.74;44.36;100530.22;5089768;28;20670;-30
2022/10/09 09:08:51;;;;;;;7.53;4.65;;;;;;;21.12;44.62;100543.38;5023014;28;20042;-29
2022/10/09 09:11:39;;;;;;;12.50;5.22;;;;;;;21.22;44.64;100544.13;5006966;28;20072;-29
2022/10/09 09:14:30;;;;;;;8.77;4.88;;;;;;;21.43;43.93;100533.22;5065017;28;20093;-32
2022/10/09 09:16:58;;;;;;;7.22;4.60;;;;;;;21.53;42.55;100535.06;5089929;28;20032;-28
2022/10/09 09:19:44;;;;;;;7.85;4.78;;;;;;;21.66;41.63;100534.47;5087545;28;20028;-28
2022/10/09 09:22:13;;;;;;;9.00;4.18;;;;;;;22.11;41.50;100529.78;5087945;28;20947;-28
2022/10/09 09:24:52;;;;;;;8.40;4.40;;;;;;;22.16;41.43;100531.63;5071012;28;20059;-28
2022/10/09 09:27:30;;;;;;;9.25;4.10;;;;;;;21.95;39.82;100537.22;5070986;28;20051;-29
2022/10/09 09:30:03;;;;;;;6.85;5.10;;;;;;;22.09;40.89;100534.69;5071136;28;20032;-28
2022/10/09 09:32:31;;;;;;;7.07;4.43;;;;;;;22.10;40.99;100535.47;5089155;28;20041;-28
2022/10/09 09:35:14;;;;;;;9.82;4.20;;;;;;;22.68;40.25;100521.91;5089518;28;20075;-30
2022/10/09 09:37:40;;;;;;;6.50;4.40;;;;;;;22.78;39.57;100535.41;5069902;28;20567;-32
2022/10/09 09:40:14;;;;;;;8.68;4.20;;;;;;;22.84;39.75;100520.66;5088973;28;20035;-32
2022/10/09 09:42:39;;;;;;;9.68;4.30;;;;;;;23.19;38.94;100528.66;5088912;28;20027;-28
2022/10/09 09:45:11;;;;;;;6.97;3.90;;;;;;;23.37;37.13;100537.97;5087434;28;20027;-28
2022/10/09 09:47:51;;;;;;;11.57;4.60;;;;;;;23.78;37.82;100515.63;5070018;28;20035;-31
2022/10/09 09:50:28;;;;;;;7.82;4.13;;;;;;;23.99;36.32;100522.38;5088975;28;20630;-28
2022/10/09 09:52:54;;;;;;;5.13;3.60;;;;;;;23.78;36.70;100521.88;5070450;28;20039;-33
2022/10/09 09:55:26;;;;;;;7.18;4.03;;;;;;;23.78;36.43;100519.16;5088754;28;20028;-30
2022/10/09 09:58:00;;;;;;;8.07;4.35;;;;;;;23.97;36.50;100519.13;5088341;28;20526;-30
2022/10/09 10:00:25;;;;;;;6.65;3.80;;;;;;;24.05;36.42;100499.38;5088309;28;20020;-28
2022/10/09 10:03:11;;;;;;;6.03;3.83;;;;;;;24.40;35.79;100505.28;5070216;28;20100;-30
2022/10/09 10:05:38;;;;;;;7.55;3.80;;;;;;;24.46;35.78;100511.47;5088463;28;20032;-30
2022/10/09 10:08:22;;;;;;;5.57;3.80;;;;;;;24.63;34.07;100521.81;5070336;28;20032;-29
2022/10/09 10:10:49;;;;;;;6.95;3.80;;;;;;;24.77;34.56;100502.72;5086769;28;20272;-31
2022/10/09 10:13:18;;;;;;;6.55;3.72;;;;;;;24.72;35.04;100503.63;5088506;28;20032;-28
2022/10/09 10:15:53;;;;;;;7.32;3.83;;;;;;;25.28;34.05;100511.81;5088149;28;20028;-28
2022/10/09 10:18:21;;;;;;;10.80;4.13;;;;;;;25.08;33.74;100502.91;5086682;28;20476;-35
2022/10/09 10:20:51;;;;;;;7.30;3.60;;;;;;;24.86;34.65;100477.13;5088042;28;20027;-28
2022/10/09 10:23:35;;;;;;;5.72;3.83;;;;;;;25.57;33.50;100487.63;5069422;28;20028;-29
2022/10/09 10:26:08;;;;;;;6.43;3.35;;;;;;;25.73;33.49;100488.06;5087768;28;20395;-29
2022/10/09 10:28:52;;;;;;;5.50;3.28;;;;;;;25.68;33.83;100482.72;5087921;28;20035;-29
2022/10/09 10:31:33;;;;;;;6.25;3.28;;;;;;;25.22;33.21;100479.16;5086963;28;20020;-28
2022/10/09 10:34:02;;;;;;;5.40;3.25;;;;;;;25.66;32.05;100480.31;5087570;28;20117;-32
2022/10/09 10:36:27;;;;;;;4.85;3.25;;;;;;;25.53;32.45;100464.78;5087587;28;20028;-32
2022/10/09 10:39:09;;;;;;;5.93;3.38;;;;;;;25.88;32.37;100486.88;5087811;28;20032;-29
2022/10/09 10:41:46;;;;;;;6.72;3.17;;;;;;;26.03;31.74;100478.34;5069017;28;20032;-31
2022/10/09 10:44:47;;;;;;;4.65;3.17;;;;;;;26.14;31.69;100472.59;5069439;28;20068;-30
2022/10/09 10:47:23;;;;;;;6.05;3.25;;;;;;;26.06;32.04;100455.84;5083330;28;20044;-29
2022/10/09 10:49:49;;;;;;;5.45;3.00;;;;;;;26.56;31.99;100462.16;5087347;28;20031;-30
2022/10/09 10:52:33;;;;;;;5.72;3.20;;;;;;;26.99;30.60;100466.97;5087665;28;20028;-28
2022/10/09 10:55:12;;;;;;;5.75;3.25;;;;;;;27.08;30.47;100450.56;5087609;28;20032;-34
2022/10/09 10:58:12;;;;;;;7.43;3.20;;;;;;;26.70;30.45;100456.59;5087432;28;20042;-32
2022/10/09 11:00:45;;;;;;;8.57;3.10;;;;;;;26.82;30.60;100454.06;5087220;28;20023;-29
2022/10/09 11:03:33;;;;;;;5.75;3.10;;;;;;;26.74;29.57;100439.22;5086028;28;20039;-30
2022/10/09 11:06:24;;;;;;;;;;;;;;;27.16;30.50;100452.50;5087992;28;20665;-28
2022/10/09 11:09:06;;;;;;;4.50;3.10;;;;;;;27.31;31.50;100454.78;5063323;28;19912;-29
2022/10/09 11:11:36;;;;;;;10.02;5.43;;;;;;;27.14;31.61;100447.34;5087195;28;20084;-29
2022/10/09 11:14:19;;;;;;;12.80;7.72;;;;;;;27.07;30.87;100444.25;5085761;28;20030;-28
2022/10/09 11:16:56;;;;;;;12.27;8.55;;;;;;;27.28;31.47;100432.72;5086797;28;20028;-31
2022/10/09 11:19:45;;;;;;;18.20;10.50;;;;;;;27.51;30.80;100425.94;5087100;28;20096;-30
2022/10/09 11:22:35;;;;;;;23.00;16.08;;;;;;;27.37;30.15;100433.53;5087153;28;20082;-29
2022/10/09 11:25:12;;;;;;;17.13;10.90;;;;;;;27.47;29.85;100432.41;5086943;28;20385;-29
2022/10/09 11:27:38;;;;;;;9.15;4.63;;;;;;;27.03;31.29;100430.44;5085379;28;20024;-31
2022/10/09 11:30:09;;;;;;;7.25;4.35;;;;;;;27.42;31.16;100427.88;5086647;28;20035;-28
2022/10/09 11:33:01;;;;;;;6.40;3.88;;;;;;;27.77;30.36;100428.63;5086938;28;20058;-32